Time;durP1;ratioP1;P1;durP2;ratioP2;P2;SDS_P1;SDS_P2;PMS_P1;PMS_P2;Temp;Humidity;BMP_temperature;BMP_pressure;BME280_temperature;BME280_humidity;BME280_pressure;Samples;Min_cycle;Max_cycle;Signal;HPM_P1;HPM_P2
2022/10/08 00:00:45;;;;;;;23.60;13.27;;;;;;;10.48;100.00;95411.81;5069479;28;20204;-84
2022/10/08 00:03:13;;;;;;;20.63;12.50;;;;;;;10.51;100.00;95409.63;5061543;28;20230;-84
2022/10/08 00:05:40;;;;;;;22.40;11.10;;;;;;;10.48;100.00;95412.59;5055494;28;20189;-84
2022/10/08 00:08:09;;;;;;;20.23;11.67;;;;;;;10.54;100.00;95418.81;5064701;28;20197;-84
2022/10/08 00:10:37;;;;;;;20.87;11.97;;;;;;;10.49;100.00;95411.63;5062883;28;20281;-83
2022/10/08 00:13:04;;;;;;;23.73;12.37;;;;;;;10.47;100.00;95408.44;5067461;28;20578;-84
2022/10/08 00:15:37;;;;;;;22.10;12.03;;;;;;;10.44;100.00;95411.41;5065387;28;20200;-80
2022/10/08 00:18:04;;;;;;;20.93;12.10;;;;;;;10.48;100.00;95402.22;5062059;28;20217;-80
2022/10/08 00:20:30;;;;;;;24.87;11.90;;;;;;;10.43;100.00;95404.63;5060351;28;20710;-79
2022/10/08 00:22:57;;;;;;;16.97;11.50;;;;;;;10.51;100.00;95401.00;5061545;28;20960;-79
2022/10/08 00:25:24;;;;;;;19.93;12.10;;;;;;;10.55;100.00;95392.63;5065217;28;20240;-79
2022/10/08 00:27:51;;;;;;;20.03;11.97;;;;;;;10.55;100.00;95394.44;5060527;28;20197;-79
2022/10/08 00:30:18;;;;;;;18.93;11.50;;;;;;;10.50;100.00;95396.84;5065882;28;20201;-79
2022/10/08 00:32:46;;;;;;;18.67;11.20;;;;;;;10.48;100.00;95401.41;5063027;28;20279;-79
2022/10/08 00:35:13;;;;;;;19.20;10.83;;;;;;;10.43;100.00;95396.81;5064378;28;20308;-79
2022/10/08 00:37:40;;;;;;;22.43;10.33;;;;;;;10.36;100.00;95390.03;5061453;28;20234;-80
2022/10/08 00:40:07;;;;;;;15.77;10.53;;;;;;;10.32;100.00;95389.63;5065098;28;20304;-80
2022/10/08 00:42:34;;;;;;;17.47;10.20;;;;;;;10.35;100.00;95384.03;5061312;28;20198;-79
2022/10/08 00:45:02;;;;;;;20.87;11.23;;;;;;;10.30;100.00;95386.41;5061399;28;20224;-81
2022/10/08 00:47:45;;;;;;;17.93;10.53;;;;;;;10.30;100.00;95383.81;5060017;28;20303;-80
2022/10/08 00:50:30;;;;;;;19.40;9.87;;;;;;;10.23;100.00;95378.59;5064509;28;20293;-79
2022/10/08 00:53:01;;;;;;;15.23;9.53;;;;;;;9.95;100.00;95377.13;5060334;28;20228;-83
2022/10/08 00:55:29;;;;;;;18.17;10.53;;;;;;;9.49;100.00;95377.75;5053712;28;20202;-82
2022/10/08 00:58:01;;;;;;;18.03;10.20;;;;;;;9.33;100.00;95375.47;5074302;28;20258;-82
2022/10/08 01:00:28;;;;;;;17.00;10.07;;;;;;;9.29;100.00;95361.31;5085020;28;20193;-85
2022/10/08 01:02:55;;;;;;;17.63;9.20;;;;;;;9.32;100.00;95366.09;5052439;28;20194;-85
2022/10/08 01:05:33;;;;;;;17.80;9.97;;;;;;;9.38;100.00;95370.50;5065884;28;20195;-85
2022/10/08 01:08:12;;;;;;;16.67;10.00;;;;;;;9.49;100.00;95369.19;5059533;28;20205;-83
2022/10/08 01:10:49;;;;;;;17.93;10.43;;;;;;;9.56;100.00;95359.59;5068899;28;20216;-82
2022/10/08 01:13:28;;;;;;;17.70;10.30;;;;;;;9.61;100.00;95347.66;5061606;28;20675;-83
2022/10/08 01:16:02;;;;;;;14.17;9.80;;;;;;;9.80;100.00;95348.72;5070844;28;20236;-81
2022/10/08 01:18:37;;;;;;;15.33;9.67;;;;;;;9.86;100.00;95341.94;5061296;28;20691;-81
2022/10/08 01:21:10;;;;;;;14.43;10.27;;;;;;;9.89;100.00;95346.75;5067400;28;20207;-82
2022/10/08 01:24:12;;;;;;;16.40;10.33;;;;;;;9.89;100.00;95344.94;5071557;28;20190;-82
2022/10/08 01:27:01;;;;;;;16.03;10.13;;;;;;;9.88;100.00;95332.16;5052598;28;20224;-81
2022/10/08 01:29:35;;;;;;;15.10;10.20;;;;;;;9.93;100.00;95337.53;5064605;28;20198;-82
2022/10/08 01:32:07;;;;;;;18.57;10.13;;;;;;;9.92;100.00;95326.38;5077811;28;20189;-80
2022/10/08 01:34:39;;;;;;;15.33;9.73;;;;;;;9.94;100.00;95334.78;5074945;28;20213;-80
2022/10/08 01:37:08;;;;;;;18.57;10.80;;;;;;;9.87;100.00;95336.53;5066762;28;20203;-80
2022/10/08 01:39:39;;;;;;;16.37;9.63;;;;;;;9.79;100.00;95323.75;5067663;28;20190;-80
2022/10/08 01:42:09;;;;;;;20.70;10.23;;;;;;;9.81;100.00;95326.97;5069659;28;20209;-79
2022/10/08 01:44:41;;;;;;;18.97;10.00;;;;;;;9.81;100.00;95328.75;5060602;28;20198;-78
2022/10/08 01:47:11;;;;;;;17.70;9.63;;;;;;;9.68;100.00;95322.53;5067193;28;20244;-79
2022/10/08 01:49:42;;;;;;;15.47;9.53;;;;;;;9.74;100.00;95317.53;5065016;28;20193;-78
2022/10/08 01:52:13;;;;;;;15.93;9.87;;;;;;;9.78;100.00;95326.56;5065144;28;20212;-79
2022/10/08 01:54:45;;;;;;;15.40;9.80;;;;;;;9.71;100.00;95308.38;5071630;28;20213;-79
2022/10/08 01:57:12;;;;;;;16.47;9.83;;;;;;;9.67;100.00;95320.91;5065558;28;20194;-78
2022/10/08 01:59:45;;;;;;;18.97;10.17;;;;;;;9.66;100.00;95326.31;5068540;28;20198;-78
2022/10/08 02:02:17;;;;;;;17.97;10.43;;;;;;;9.69;100.00;95318.16;5065365;28;20327;-78
2022/10/08 02:04:44;;;;;;;17.80;10.17;;;;;;;9.72;100.00;95325.53;5065828;28;20198;-78
2022/10/08 02:07:15;;;;;;;18.30;10.43;;;;;;;9.73;100.00;95319.34;5069949;28;20209;-77
2022/10/08 02:09:44;;;;;;;19.00;10.70;;;;;;;9.63;100.00;95322.31;5066006;28;20193;-78
2022/10/08 02:12:11;;;;;;;23.60;12.60;;;;;;;9.59;100.00;95320.31;5068324;28;20194;-79
2022/10/08 02:14:43;;;;;;;25.40;12.47;;;;;;;9.52;100.00;95322.09;5068680;28;20232;-81
2022/10/08 02:17:22;;;;;;;22.37;11.97;;;;;;;9.01;100.00;95327.63;5088641;28;20258;-83
2022/10/08 02:19:54;;;;;;;19.70;12.87;;;;;;;8.77;100.00;95329.91;5079770;28;20586;-82
2022/10/08 02:22:26;;;;;;;24.63;13.93;;;;;;;8.82;100.00;95330.91;5070087;28;20223;-82
2022/10/08 02:24:58;;;;;;;21.43;14.00;;;;;;;8.92;100.00;95331.38;5060554;28;20209;-82
2022/10/08 02:27:30;;;;;;;25.53;15.37;;;;;;;8.98;100.00;95325.44;5080404;28;20189;-83
2022/10/08 02:30:07;;;;;;;25.20;16.67;;;;;;;9.09;100.00;95319.69;5067473;28;20200;-84
2022/10/08 02:32:38;;;;;;;29.33;16.67;;;;;;;9.18;100.00;95328.13;5074957;28;20190;-84
2022/10/08 02:35:11;;;;;;;31.47;18.10;;;;;;;9.20;100.00;95328.75;5074217;28;20202;-84
2022/10/08 02:37:44;;;;;;;35.63;17.93;;;;;;;9.19;100.00;95323.72;5062562;28;20210;-85
2022/10/08 02:40:14;;;;;;;22.57;15.47;;;;;;;9.23;100.00;95330.94;5067446;28;20213;-83
2022/10/08 02:42:46;;;;;;;25.23;15.47;;;;;;;9.19;100.00;95321.13;5077356;28;20193;-86
2022/10/08 02:45:20;;;;;;;22.37;15.40;;;;;;;9.27;100.00;95324.38;5067368;28;20653;-85
2022/10/08 02:47:50;;;;;;;27.43;16.07;;;;;;;9.23;100.00;95322.38;5058665;28;20225;-85
2022/10/08 02:50:20;;;;;;;24.03;15.27;;;;;;;9.25;100.00;95325.56;5068086;28;20669;-84
2022/10/08 02:52:50;;;;;;;26.77;15.00;;;;;;;9.20;100.00;95318.38;5059325;28;20640;-83
2022/10/08 02:55:27;;;;;;;25.60;14.53;;;;;;;9.23;100.00;95322.38;5070488;28;20253;-84
2022/10/08 02:58:00;;;;;;;22.53;14.40;;;;;;;9.18;100.00;95319.56;5067262;28;20287;-83
2022/10/08 03:00:34;;;;;;;23.50;14.13;;;;;;;9.19;100.00;95319.34;5068801;28;20205;-83
2022/10/08 03:03:08;;;;;;;21.93;14.70;;;;;;;9.18;100.00;95322.16;5073111;28;20664;-84
2022/10/08 03:05:36;;;;;;;26.33;14.33;;;;;;;9.21;100.00;95326.91;5073078;28;20804;-84
2022/10/08 03:08:05;;;;;;;26.27;15.13;;;;;;;9.21;100.00;95330.31;5053470;28;20208;-84
2022/10/08 03:10:35;;;;;;;29.07;15.20;;;;;;;9.19;100.00;95319.34;5064211;28;20201;-78
2022/10/08 03:13:03;;;;;;;26.90;15.17;;;;;;;9.13;100.00;95314.94;5064792;28;20194;-79
2022/10/08 03:15:33;;;;;;;28.33;15.60;;;;;;;9.14;100.00;95324.31;5063063;28;20661;-79
2022/10/08 03:18:04;;;;;;;29.47;15.67;;;;;;;9.15;100.00;95320.72;5058787;28;20194;-79
2022/10/08 03:20:31;;;;;;;23.97;14.77;;;;;;;8.88;100.00;95324.97;5065883;28;20200;-78
2022/10/08 03:23:01;;;;;;;27.67;15.80;;;;;;;8.51;100.00;95309.78;5061955;28;20197;-79
2022/10/08 03:25:28;;;;;;;30.17;16.13;;;;;;;8.32;100.00;95313.81;5062805;28;20197;-78
2022/10/08 03:27:55;;;;;;;28.67;16.13;;;;;;;8.39;100.00;95311.28;5062746;28;20195;-79
2022/10/08 03:30:22;;;;;;;25.00;16.00;;;;;;;8.51;100.00;95310.56;5062403;28;20235;-80
2022/10/08 03:32:50;;;;;;;26.90;15.40;;;;;;;8.61;100.00;95304.25;5058738;28;20210;-80
2022/10/08 03:35:17;;;;;;;28.37;15.57;;;;;;;8.67;100.00;95311.28;5064180;28;20218;-79
2022/10/08 03:37:44;;;;;;;28.00;14.43;;;;;;;8.78;100.00;95315.94;5061363;28;20572;-80
2022/10/08 03:40:11;;;;;;;22.00;14.70;;;;;;;8.86;100.00;95310.63;5062717;28;20201;-79
2022/10/08 03:42:38;;;;;;;27.93;14.97;;;;;;;8.92;100.00;95315.00;5066462;28;20239;-82
2022/10/08 03:45:05;;;;;;;29.73;17.03;;;;;;;8.92;100.00;95308.03;5068983;28;20220;-81
2022/10/08 03:47:32;;;;;;;28.13;17.43;;;;;;;8.94;100.00;95293.13;5071033;28;20649;-81
2022/10/08 03:50:01;;;;;;;27.70;17.63;;;;;;;8.90;100.00;95301.44;5059848;28;20289;-82
2022/10/08 03:52:29;;;;;;;35.80;18.23;;;;;;;8.95;100.00;95302.47;5062708;28;20209;-82
2022/10/08 03:54:56;;;;;;;28.93;18.00;;;;;;;8.94;100.00;95305.28;5076022;28;20300;-81
2022/10/08 03:57:22;;;;;;;32.20;17.37;;;;;;;9.01;100.00;95309.50;5070709;28;20201;-80
2022/10/08 03:59:49;;;;;;;31.10;17.73;;;;;;;9.03;100.00;95310.09;5062153;28;20209;-81
2022/10/08 04:02:16;;;;;;;25.67;16.17;;;;;;;9.01;100.00;95308.69;5059869;28;20202;-79
2022/10/08 04:04:43;;;;;;;32.07;16.00;;;;;;;9.06;100.00;95306.34;5060280;28;20616;-80
2022/10/08 04:07:11;;;;;;;29.77;16.23;;;;;;;9.08;100.00;95310.34;5062715;28;20232;-81
2022/10/08 04:09:38;;;;;;;34.43;15.53;;;;;;;9.07;100.00;95307.91;5058668;28;21716;-81
2022/10/08 04:12:04;;;;;;;31.60;14.90;;;;;;;8.98;100.00;95301.28;5062959;28;20189;-83
2022/10/08 04:14:31;;;;;;;28.23;14.30;;;;;;;9.00;100.00;95307.09;5067709;28;20220;-82
2022/10/08 04:16:58;;;;;;;29.03;15.60;;;;;;;8.86;100.00;95297.66;5066341;28;20202;-82
2022/10/08 04:19:25;;;;;;;27.80;15.83;;;;;;;8.93;100.00;95308.84;5062210;28;20198;-82
2022/10/08 04:21:52;;;;;;;24.03;14.97;;;;;;;8.92;100.00;95297.66;5064651;28;20216;-81
2022/10/08 04:24:20;;;;;;;28.60;16.03;;;;;;;8.90;100.00;95296.25;5064912;28;20186;-81
2022/10/08 04:26:47;;;;;;;30.73;16.00;;;;;;;8.89;100.00;95308.41;5063836;28;20201;-79
2022/10/08 04:29:14;;;;;;;32.63;17.17;;;;;;;8.85;100.00;95304.63;5062459;28;20193;-80
2022/10/08 04:31:40;;;;;;;27.87;16.83;;;;;;;8.48;100.00;95302.41;5067716;28;20197;-81
2022/10/08 04:34:09;;;;;;;30.47;17.00;;;;;;;8.13;100.00;95304.09;5066233;28;20221;-80
2022/10/08 04:36:36;;;;;;;31.77;18.37;;;;;;;8.10;100.00;95301.06;5059884;28;20189;-81
2022/10/08 04:39:03;;;;;;;31.90;19.73;;;;;;;8.05;100.00;95287.88;5067062;28;20201;-82
2022/10/08 04:41:31;;;;;;;34.70;20.73;;;;;;;8.21;100.00;95295.38;5064193;28;20193;-80
2022/10/08 04:44:00;;;;;;;34.53;21.50;;;;;;;8.31;100.00;95291.50;5057579;28;20649;-80
2022/10/08 04:46:26;;;;;;;34.97;20.33;;;;;;;8.39;100.00;95300.94;5063861;28;20228;-80
2022/10/08 04:48:55;;;;;;;35.67;21.83;;;;;;;8.45;100.00;95302.78;5059583;28;20233;-79
2022/10/08 04:51:23;;;;;;;41.50;21.80;;;;;;;8.54;100.00;95302.41;5069922;28;20642;-80
2022/10/08 04:53:50;;;;;;;44.27;23.73;;;;;;;8.62;100.00;95304.09;5059083;28;20656;-80
2022/10/08 04:56:20;;;;;;;46.97;24.50;;;;;;;8.61;100.00;95304.25;5063894;28;20675;-83
2022/10/08 04:58:48;;;;;;;49.80;27.63;;;;;;;8.59;100.00;95306.25;5066353;28;20303;-81
2022/10/08 05:01:16;;;;;;;55.23;28.67;;;;;;;8.63;100.00;95310.84;5063408;28;20573;-80
2022/10/08 05:03:45;;;;;;;45.13;26.13;;;;;;;8.65;100.00;95305.50;5067208;28;20632;-81
2022/10/08 05:06:15;;;;;;;48.30;26.10;;;;;;;8.70;100.00;95313.50;5065655;28;20579;-79
2022/10/08 05:08:42;;;;;;;47.20;25.20;;;;;;;8.71;100.00;95291.78;5063133;28;20201;-80
2022/10/08 05:11:09;;;;;;;47.13;26.97;;;;;;;8.79;100.00;95307.16;5054555;28;20193;-80
2022/10/08 05:13:36;;;;;;;49.57;26.87;;;;;;;8.71;100.00;95302.94;5063042;28;20201;-80
2022/10/08 05:16:06;;;;;;;44.50;27.07;;;;;;;8.78;100.00;95308.97;5067164;28;20213;-73
2022/10/08 05:18:33;;;;;;;52.00;27.37;;;;;;;8.85;100.00;95309.81;5060662;28;20197;-73
2022/10/08 05:21:03;;;;;;;39.97;24.23;;;;;;;8.90;100.00;95307.44;5059942;28;20198;-73
2022/10/08 05:23:30;;;;;;;46.43;24.17;;;;;;;8.96;100.00;95306.69;5064122;28;20646;-73
2022/10/08 05:25:56;;;;;;;41.43;24.97;;;;;;;8.94;100.00;95318.22;5061038;28;20220;-72
2022/10/08 05:28:23;;;;;;;43.23;24.67;;;;;;;9.01;100.00;95313.88;5060337;28;20243;-71
2022/10/08 05:30:50;;;;;;;44.17;25.03;;;;;;;8.98;100.00;95320.25;5064938;28;20194;-73
2022/10/08 05:33:18;;;;;;;41.83;24.90;;;;;;;9.00;100.00;95304.50;5061336;28;20197;-72
2022/10/08 05:35:45;;;;;;;46.13;25.83;;;;;;;9.13;100.00;95317.53;5060934;28;20228;-73
2022/10/08 05:38:12;;;;;;;40.27;23.50;;;;;;;8.92;100.00;95321.00;5061520;28;20193;-74
2022/10/08 05:40:39;;;;;;;42.53;22.93;;;;;;;8.65;100.00;95327.03;5062214;28;20202;-79
2022/10/08 05:43:06;;;;;;;29.83;17.73;;;;;;;8.53;100.00;95320.75;5059335;28;20194;-73
2022/10/08 05:45:33;;;;;;;29.37;18.50;;;;;;;8.62;100.00;95318.81;5061039;28;20182;-74
2022/10/08 05:47:59;;;;;;;34.70;19.53;;;;;;;8.74;100.00;95320.72;5060079;28;20221;-74
2022/10/08 05:50:27;;;;;;;36.07;18.43;;;;;;;8.81;100.00;95318.94;5061077;28;20212;-73
2022/10/08 05:52:54;;;;;;;33.83;17.67;;;;;;;8.92;100.00;95312.41;5060852;28;20198;-74
2022/10/08 05:55:21;;;;;;;36.23;17.10;;;;;;;9.06;100.00;95316.72;5057621;28;20220;-74
2022/10/08 05:57:48;;;;;;;32.30;16.97;;;;;;;9.15;100.00;95319.94;5065450;28;20197;-73
2022/10/08 06:00:15;;;;;;;33.17;17.10;;;;;;;9.26;100.00;95317.59;5064375;28;20213;-72
2022/10/08 06:02:42;;;;;;;29.87;16.73;;;;;;;9.39;100.00;95309.84;5064115;28;20204;-74
2022/10/08 06:05:09;;;;;;;30.43;16.90;;;;;;;9.47;100.00;95308.88;5062765;28;20206;-74
2022/10/08 06:07:37;;;;;;;32.87;17.27;;;;;;;9.47;100.00;95312.28;5063455;28;20202;-74
2022/10/08 06:10:05;;;;;;;29.80;16.40;;;;;;;9.58;100.00;95310.94;5064115;28;20194;-72
2022/10/08 06:12:32;;;;;;;30.67;16.33;;;;;;;9.67;100.00;95317.53;5067412;28;20221;-73
2022/10/08 06:14:58;;;;;;;30.50;16.33;;;;;;;9.72;100.00;95309.16;5064288;28;20225;-73
2022/10/08 06:17:25;;;;;;;35.93;15.53;;;;;;;9.81;100.00;95318.38;5061357;28;20201;-73
2022/10/08 06:19:52;;;;;;;33.93;17.10;;;;;;;9.94;100.00;95315.78;5066518;28;20197;-77
2022/10/08 06:22:19;;;;;;;31.73;15.97;;;;;;;10.02;100.00;95308.63;5062599;28;20645;-81
2022/10/08 06:24:47;;;;;;;30.80;15.67;;;;;;;10.07;100.00;95315.81;5055227;28;20657;-76
2022/10/08 06:27:14;;;;;;;39.60;16.40;;;;;;;10.15;100.00;95323.44;5064051;28;20197;-76
2022/10/08 06:29:41;;;;;;;29.77;15.33;;;;;;;10.18;100.00;95317.88;5065632;28;20198;-73
2022/10/08 06:32:08;;;;;;;27.53;15.03;;;;;;;10.22;100.00;95324.25;5062721;28;20818;-72
2022/10/08 06:34:35;;;;;;;28.67;15.17;;;;;;;10.27;100.00;95312.25;5062077;28;20227;-73
2022/10/08 06:37:01;;;;;;;26.13;13.90;;;;;;;10.36;100.00;95319.88;5063270;28;20209;-72
2022/10/08 06:39:28;;;;;;;25.37;13.50;;;;;;;10.41;100.00;95314.88;5063364;28;20204;-73
2022/10/08 06:41:56;;;;;;;24.80;13.97;;;;;;;10.53;100.00;95324.47;5070296;28;20614;-75
2022/10/08 06:44:42;;;;;;;20.80;13.27;;;;;;;10.53;100.00;95313.28;5068623;28;20193;-70
2022/10/08 06:47:11;;;;;;;21.97;13.63;;;;;;;10.66;100.00;95323.66;5064607;28;20208;-73
2022/10/08 06:49:38;;;;;;;27.30;14.20;;;;;;;10.70;100.00;95312.66;5062999;28;20566;-74
2022/10/08 06:52:05;;;;;;;24.00;13.73;;;;;;;10.86;100.00;95316.63;5063296;28;20311;-77
2022/10/08 06:54:32;;;;;;;21.43;12.90;;;;;;;10.92;100.00;95312.41;5065465;28;20271;-79
2022/10/08 06:57:00;;;;;;;23.20;13.70;;;;;;;10.99;100.00;95313.19;5070221;28;20896;-78
2022/10/08 06:59:27;;;;;;;24.30;14.97;;;;;;;11.10;100.00;95318.56;5063139;28;20205;-78
2022/10/08 07:01:53;;;;;;;22.63;14.97;;;;;;;11.14;100.00;95317.16;5064099;28;20206;-77
2022/10/08 07:04:20;;;;;;;29.60;14.33;;;;;;;11.17;100.00;95318.53;5061998;28;20204;-78
2022/10/08 07:06:47;;;;;;;26.10;14.13;;;;;;;11.26;100.00;95322.50;5062939;28;20212;-77
2022/10/08 07:09:14;;;;;;;34.23;15.10;;;;;;;11.32;100.00;95322.50;5064616;28;20202;-78
2022/10/08 07:11:41;;;;;;;28.87;15.43;;;;;;;11.36;100.00;95312.47;5065760;28;20580;-74
2022/10/08 07:14:09;;;;;;;24.57;14.73;;;;;;;11.51;100.00;95320.03;5066238;28;20216;-76
2022/10/08 07:16:36;;;;;;;27.83;16.57;;;;;;;11.51;100.00;95320.84;5064901;28;20238;-74
2022/10/08 07:19:03;;;;;;;36.57;16.40;;;;;;;11.52;100.00;95322.41;5059942;28;20201;-75
2022/10/08 07:21:30;;;;;;;25.77;16.50;;;;;;;11.59;100.00;95323.19;5064834;28;20190;-75
2022/10/08 07:23:59;;;;;;;26.53;16.27;;;;;;;11.64;100.00;95320.75;5062564;28;20268;-76
2022/10/08 07:26:28;;;;;;;33.57;17.37;;;;;;;11.73;100.00;95310.94;5063129;28;20200;-76
2022/10/08 07:28:58;;;;;;;26.10;16.77;;;;;;;11.68;100.00;95308.94;5065498;28;20285;-78
2022/10/08 07:31:28;;;;;;;33.87;17.37;;;;;;;11.56;100.00;95305.38;5061440;28;20204;-81
2022/10/08 07:33:55;;;;;;;28.70;16.93;;;;;;;11.48;100.00;95312.63;5061744;28;20737;-82
2022/10/08 07:36:24;;;;;;;30.53;16.90;;;;;;;11.44;100.00;95309.66;5063089;28;20210;-81
2022/10/08 07:38:53;;;;;;;30.60;18.03;;;;;;;11.51;100.00;95309.63;5072029;28;20206;-83
2022/10/08 07:41:20;;;;;;;29.20;17.67;;;;;;;11.66;100.00;95305.72;5067671;28;20198;-83
2022/10/08 07:43:51;;;;;;;28.67;17.97;;;;;;;11.82;100.00;95307.09;5070018;28;20205;-81
2022/10/08 07:46:18;;;;;;;29.43;17.53;;;;;;;11.94;100.00;95300.22;5066504;28;20189;-84
2022/10/08 07:48:46;;;;;;;30.80;16.67;;;;;;;12.12;100.00;95308.09;5071842;28;20341;-81
2022/10/08 07:51:15;;;;;;;26.20;15.30;;;;;;;12.24;100.00;95301.19;5072939;28;20207;-85
2022/10/08 07:53:42;;;;;;;25.50;15.40;;;;;;;12.39;100.00;95299.06;5070423;28;20264;-87
2022/10/08 07:56:11;;;;;;;24.93;16.10;;;;;;;12.56;100.00;95294.13;5061922;28;20220;-81
2022/10/08 07:58:38;;;;;;;29.33;17.50;;;;;;;12.69;100.00;95296.63;5064650;28;20193;-77
2022/10/08 08:01:08;;;;;;;27.90;17.37;;;;;;;12.85;100.00;95297.84;5061665;28;20204;-76
2022/10/08 08:03:35;;;;;;;30.33;17.30;;;;;;;12.93;100.00;95289.75;5059881;28;20236;-76
2022/10/08 08:06:05;;;;;;;25.87;18.07;;;;;;;13.06;99.77;95294.84;5064637;28;20193;-73
2022/10/08 08:08:34;;;;;;;31.77;18.10;;;;;;;13.22;98.85;95288.28;5061395;28;20198;-76
2022/10/08 08:11:03;;;;;;;33.67;17.70;;;;;;;13.36;99.10;95287.13;5065812;28;20213;-77
2022/10/08 08:13:31;;;;;;;28.00;16.37;;;;;;;13.52;98.25;95286.50;5060421;28;20205;-77
2022/10/08 08:15:59;;;;;;;31.10;19.47;;;;;;;13.71;98.60;95285.44;5061529;28;20236;-78
2022/10/08 08:18:29;;;;;;;27.43;18.03;;;;;;;13.91;96.46;95287.81;5061151;28;20197;-78
2022/10/08 08:21:00;;;;;;;26.93;17.50;;;;;;;14.08;96.88;95288.78;5058601;28;20213;-72
2022/10/08 08:23:31;;;;;;;28.57;18.13;;;;;;;14.30;95.96;95283.78;5060882;28;20194;-73
2022/10/08 08:26:00;;;;;;;29.37;17.77;;;;;;;14.51;94.15;95289.34;5058883;28;20216;-73
2022/10/08 08:28:27;;;;;;;33.30;18.60;;;;;;;14.78;92.62;95290.47;5060315;28;20280;-76
2022/10/08 08:30:56;;;;;;;33.37;19.10;;;;;;;14.97;92.21;95288.53;5068453;28;20232;-76
2022/10/08 08:33:22;;;;;;;35.10;19.30;;;;;;;15.13;90.62;95284.41;5059938;28;20660;-77
2022/10/08 08:35:54;;;;;;;33.20;19.80;;;;;;;15.38;89.72;95289.38;5060628;28;20225;-76
2022/10/08 08:38:21;;;;;;;28.37;18.07;;;;;;;15.59;89.33;95289.56;5061322;28;20340;-77
2022/10/08 08:40:51;;;;;;;29.60;16.90;;;;;;;15.89;88.34;95281.47;5062261;28;20194;-77
2022/10/08 08:43:18;;;;;;;30.33;16.83;;;;;;;16.23;86.52;95280.50;5066055;28;20201;-87
2022/10/08 08:45:48;;;;;;;25.67;14.53;;;;;;;16.50;84.36;95278.06;5082179;28;20194;-87
2022/10/08 08:48:19;;;;;;;20.40;12.27;;;;;;;16.85;83.17;95281.22;5066429;28;20226;-84
2022/10/08 08:50:48;;;;;;;22.30;12.30;;;;;;;17.18;82.12;95276.94;5063240;28;20656;-74
2022/10/08 08:53:16;;;;;;;19.73;11.83;;;;;;;17.52;78.99;95273.16;5062103;28;20658;-74
2022/10/08 08:55:45;;;;;;;22.77;12.27;;;;;;;17.72;77.87;95270.00;5065767;28;20899;-76
2022/10/08 08:58:32;;;;;;;19.00;12.00;;;;;;;17.96;76.68;95273.94;5063762;28;20284;-74
2022/10/08 09:01:06;;;;;;;23.98;12.82;;;;;;;18.07;75.48;95279.03;5059632;28;20680;-76
2022/10/08 09:03:39;;;;;;;22.35;12.57;;;;;;;18.32;73.95;95278.50;5060052;28;20190;-77
2022/10/08 09:06:09;;;;;;;22.70;12.57;;;;;;;18.53;74.26;95279.47;5058020;28;20190;-77
2022/10/08 09:08:40;;;;;;;21.67;11.70;;;;;;;18.77;71.53;95279.91;5063644;28;20267;-76
2022/10/08 09:11:12;;;;;;;20.48;11.05;;;;;;;18.97;70.12;95275.56;5058408;28;20197;-76
2022/10/08 09:13:47;;;;;;;17.00;11.68;;;;;;;19.06;70.49;95270.59;5068310;28;20204;-82
2022/10/08 09:16:15;;;;;;;20.92;11.98;;;;;;;19.40;69.80;95276.34;5062972;28;20217;-81
2022/10/08 09:18:47;;;;;;;18.88;11.88;;;;;;;19.71;67.88;95256.97;5068048;28;20208;-81
2022/10/08 09:21:14;;;;;;;19.88;11.50;;;;;;;20.17;65.84;95265.75;5071110;28;20202;-81
2022/10/08 09:23:41;;;;;;;18.80;11.48;;;;;;;20.45;65.26;95260.00;5063265;28;20212;-75
2022/10/08 09:49:31;;;;;;;9.90;6.78;;;;;;;23.13;53.01;95248.88;5138689;27;20633;-75
2022/10/08 09:52:01;;;;;;;11.45;6.80;;;;;;;23.31;51.33;95242.06;5138616;27;20192;-75
2022/10/08 09:54:30;;;;;;;15.35;6.80;;;;;;;23.78;52.02;95243.91;5133336;27;20199;-75
2022/10/08 09:56:59;;;;;;;14.52;7.05;;;;;;;24.26;51.38;95250.66;5128465;27;20188;-75
2022/10/08 09:59:28;;;;;;;12.05;5.55;;;;;;;24.37;49.29;95248.63;5128847;27;20579;-75
2022/10/08 10:01:56;;;;;;;8.27;5.82;;;;;;;24.73;48.63;95242.44;5127478;27;20192;-75
2022/10/08 10:04:33;;;;;;;7.32;5.40;;;;;;;24.86;45.58;95246.25;5127778;27;20194;-76
2022/10/08 10:07:01;;;;;;;7.13;5.40;;;;;;;24.99;45.13;95236.75;5128370;27;20175;-76
2022/10/08 10:09:40;;;;;;;13.95;5.65;;;;;;;25.34;45.39;95242.16;5127600;27;20710;-76
2022/10/08 10:12:17;;;;;;;10.05;5.30;;;;;;;25.75;44.77;95228.06;5127945;27;20198;-76
2022/10/08 10:14:47;;;;;;;11.50;5.38;;;;;;;26.18;44.81;95236.47;5127829;27;20211;-76
2022/10/08 10:17:22;;;;;;;8.82;5.65;;;;;;;26.41;43.04;95227.41;5144729;27;20210;-74
2022/10/08 10:19:55;;;;;;;8.77;5.25;;;;;;;26.35;42.48;95229.41;5148530;27;20198;-75
2022/10/08 10:22:28;;;;;;;8.68;4.70;;;;;;;26.69;39.18;95215.53;5148807;27;20465;-75
2022/10/08 10:25:01;;;;;;;11.95;5.15;;;;;;;27.01;39.20;95230.47;5149254;27;20190;-75
2022/10/08 10:27:34;;;;;;;9.30;5.47;;;;;;;27.10;38.87;95225.19;5148707;27;20252;-76
2022/10/08 10:30:17;;;;;;;10.30;5.60;;;;;;;27.04;38.23;95222.63;5147809;27;20214;-75
2022/10/08 10:32:49;;;;;;;12.20;5.60;;;;;;;27.34;37.63;95217.56;5148960;27;20195;-74
2022/10/08 10:35:24;;;;;;;8.18;5.28;;;;;;;27.55;37.60;95205.25;5148818;27;20207;-77
2022/10/08 10:37:57;;;;;;;10.60;7.00;;;;;;;27.81;36.84;95210.63;5150836;27;20719;-83
2022/10/08 10:40:31;;;;;;;9.38;5.82;;;;;;;28.04;37.81;95212.09;5150099;27;20180;-78
2022/10/08 10:43:17;;;;;;;8.90;5.70;;;;;;;28.47;35.94;95209.41;5149530;27;20174;-73
2022/10/08 10:45:48;;;;;;;10.45;5.00;;;;;;;28.64;34.59;95209.41;5143028;27;20203;-78
2022/10/08 10:48:15;;;;;;;9.20;4.82;;;;;;;28.58;34.03;95203.41;5134635;27;20227;-78
2022/10/08 10:50:53;;;;;;;7.28;4.78;;;;;;;28.84;33.44;95191.88;5135081;27;20578;-79
2022/10/08 10:53:33;;;;;;;9.55;4.72;;;;;;;28.83;33.53;95187.66;5134423;27;20192;-79
2022/10/08 10:56:10;;;;;;;6.57;4.63;;;;;;;28.87;33.62;95185.88;5134429;27;20222;-79
2022/10/08 10:58:58;;;;;;;10.85;4.80;;;;;;;29.01;32.34;95183.78;5134110;27;20202;-78
2022/10/08 11:01:35;;;;;;;12.05;5.20;;;;;;;28.76;32.63;95179.31;5134496;27;20200;-79
2022/10/08 11:04:08;;;;;;;7.55;4.55;;;;;;;28.62;33.61;95174.91;5134005;27;20614;-79
2022/10/08 11:06:59;;;;;;;7.05;4.43;;;;;;;28.96;33.69;95173.25;5134849;27;20206;-79
2022/10/08 11:09:36;;;;;;;10.15;5.15;;;;;;;29.01;33.25;95165.84;5125394;27;20592;-78
2022/10/08 11:12:17;;;;;;;7.50;5.05;;;;;;;29.39;33.30;95167.72;5135037;27;20180;-80
2022/10/08 11:14:55;;;;;;;7.30;5.10;;;;;;;29.55;32.36;95161.47;5134998;27;20202;-79
2022/10/08 11:17:44;;;;;;;7.20;4.82;;;;;;;29.38;33.07;95163.50;5134167;27;20638;-79
2022/10/08 11:20:38;;;;;;;7.10;4.30;;;;;;;29.85;33.29;95153.41;5135170;27;20244;-79
2022/10/08 11:23:16;;;;;;;5.00;4.25;;;;;;;30.13;32.66;95146.44;5134309;27;20680;-78
2022/10/08 11:25:48;;;;;;;6.72;4.60;;;;;;;30.29;32.81;95153.53;5134619;27;20183;-79
2022/10/08 11:28:24;;;;;;;6.85;4.25;;;;;;;30.49;31.94;95154.63;5134365;27;20245;-79
2022/10/08 11:31:04;;;;;;;9.60;4.80;;;;;;;30.60;31.31;95149.63;5133804;27;20281;-79
2022/10/08 11:33:31;;;;;;;6.18;4.20;;;;;;;30.40;31.12;95143.19;5134337;27;20191;-79
2022/10/08 11:36:13;;;;;;;6.97;4.32;;;;;;;30.38;31.55;95136.59;5134047;27;20223;-79
2022/10/08 11:38:49;;;;;;;5.75;4.30;;;;;;;30.03;31.06;95139.56;5133976;27;20194;-79
2022/10/08 11:41:24;;;;;;;6.22;4.22;;;;;;;30.36;31.45;95134.97;5134029;27;20179;-79
2022/10/08 11:43:54;;;;;;;8.52;4.35;;;;;;;30.12;31.81;95129.53;5134268;27;20175;-79
2022/10/08 11:46:27;;;;;;;9.23;3.88;;;;;;;30.17;30.80;95125.88;5133595;27;20203;-80
2022/10/08 11:48:56;;;;;;;10.88;3.97;;;;;;;30.34;30.13;95117.66;5134032;27;20234;-79
2022/10/08 11:51:36;;;;;;;6.88;4.00;;;;;;;30.65;30.66;95123.34;5133305;27;20230;-79
2022/10/08 11:54:12;;;;;;;8.05;4.32;;;;;;;30.97;30.43;95119.03;5133384;27;20630;-79
2022/10/08 11:56:42;;;;;;;6.80;3.95;;;;;;;30.32;30.20;95101.91;5133471;27;20218;-79